Time;durP1;ratioP1;P1;durP2;ratioP2;P2;SDS_P1;SDS_P2;PMS_P1;PMS_P2;Temp;Humidity;BMP_temperature;BMP_pressure;BME280_temperature;BME280_humidity;BME280_pressure;Samples;Min_cycle;Max_cycle;Signal;HPM_P1;HPM_P2
2023/02/19 00:00:13;;;;;;;3.15;1.20;;;21.20;60.70;;;;;;4949533;28;89141;-86
2023/02/19 00:02:39;;;;;;;2.58;1.20;;;21.20;60.70;;;;;;4949742;28;89245;-86
2023/02/19 00:05:04;;;;;;;2.13;1.40;;;21.20;60.70;;;;;;4950498;28;87650;-86
2023/02/19 00:07:30;;;;;;;2.60;1.30;;;21.10;60.70;;;;;;4949071;28;87388;-86
2023/02/19 00:09:55;;;;;;;2.53;1.25;;;21.20;60.80;;;;;;4950428;28;86934;-86
2023/02/19 00:12:21;;;;;;;3.88;1.17;;;21.10;60.50;;;;;;4951569;28;87741;-86
2023/02/19 00:14:47;;;;;;;2.55;1.33;;;21.10;60.70;;;;;;4960324;28;87308;-86
2023/02/19 00:17:12;;;;;;;2.10;1.50;;;21.10;60.70;;;;;;4941630;28;89648;-86
2023/02/19 00:19:38;;;;;;;1.48;1.17;;;21.10;60.70;;;;;;4941044;28;90120;-86
2023/02/19 00:28:48;;;;;;;2.50;1.13;;;21.00;60.70;;;;;;4958149;28;87200;-86
2023/02/19 00:31:16;;;;;;;1.83;1.40;;;21.00;60.50;;;;;;4958385;28;88374;-86
2023/02/19 00:33:43;;;;;;;2.40;1.38;;;21.00;60.70;;;;;;4959136;28;87475;-86
2023/02/19 00:36:08;;;;;;;2.30;1.20;;;21.00;60.80;;;;;;4959243;28;87542;-86
2023/02/19 00:38:49;;;;;;;;;;;;;;;;;;;;;
2023/02/19 00:41:24;;;;;;;1.50;1.30;;;20.90;60.80;;;;;;4958912;28;90816;-86
2023/02/19 00:43:58;;;;;;;1.90;1.15;;;20.90;60.80;;;;;;4959318;28;87053;-86
2023/02/19 00:46:36;;;;;;;1.92;1.27;;;20.90;60.90;;;;;;4932167;28;87628;-86
2023/02/19 00:49:03;;;;;;;2.35;1.55;;;20.90;60.90;;;;;;4958644;28;87025;-86
2023/02/19 00:51:31;;;;;;;1.75;1.25;;;20.90;60.90;;;;;;4922325;28;91241;-86
2023/02/19 00:53:58;;;;;;;3.63;1.80;;;20.90;60.80;;;;;;4898875;28;93212;-86
2023/02/19 00:56:23;;;;;;;1.67;1.05;;;20.80;60.90;;;;;;4921433;28;87272;-86
2023/02/19 01:02:16;;;;;;;2.50;1.42;;;20.80;61.00;;;;;;4918989;28;87269;-86
2023/02/19 01:04:41;;;;;;;3.10;1.38;;;20.80;61.20;;;;;;4934348;28;90235;-86
2023/02/19 01:07:07;;;;;;;2.25;1.30;;;20.80;61.20;;;;;;4918956;28;87451;-86
2023/02/19 01:09:32;;;;;;;2.35;1.40;;;20.80;61.20;;;;;;4919595;28;87408;-86
2023/02/19 01:12:00;;;;;;;1.92;1.30;;;20.80;62.10;;;;;;4919276;28;87450;-86
2023/02/19 01:24:46;;;;;;;1.77;1.30;;;20.70;61.30;;;;;;4920116;28;87907;-87
2023/02/19 01:27:12;;;;;;;1.33;1.20;;;20.70;61.40;;;;;;4919025;28;88183;-87
2023/02/19 01:29:37;;;;;;;1.80;1.33;;;20.60;61.40;;;;;;4920332;28;87388;-87
2023/02/19 01:32:03;;;;;;;2.20;1.45;;;20.60;61.30;;;;;;4919106;28;87041;-87
2023/02/19 01:34:39;;;;;;;1.70;1.30;;;20.60;61.40;;;;;;4919814;28;88502;-87
2023/02/19 01:37:06;;;;;;;1.40;1.13;;;20.60;61.40;;;;;;4919370;28;87823;-87
2023/02/19 01:39:32;;;;;;;2.28;1.30;;;20.60;61.40;;;;;;4919071;28;87454;-87
2023/02/19 01:41:58;;;;;;;1.50;1.00;;;20.60;61.40;;;;;;4919509;28;87131;-87
2023/02/19 01:44:44;;;;;;;1.65;1.20;;;20.60;61.30;;;;;;4919468;28;90959;-85
2023/02/19 01:47:09;;;;;;;2.30;1.60;;;20.60;61.30;;;;;;4859222;28;89701;-87
2023/02/19 01:49:50;;;;;;;1.67;1.40;;;20.60;61.50;;;;;;4859587;29;87168;-87
2023/02/19 01:52:27;;;;;;;1.85;1.17;;;20.60;61.40;;;;;;4875443;28;87518;-87
2023/02/19 01:54:53;;;;;;;2.05;1.17;;;20.50;61.40;;;;;;4878134;28;87565;-87
2023/02/19 01:57:23;;;;;;;2.03;1.40;;;20.50;61.40;;;;;;4878164;28;87500;-87
2023/02/19 01:59:54;;;;;;;1.48;1.10;;;20.50;61.50;;;;;;4879451;28;87316;-87
2023/02/19 02:02:27;;;;;;;1.60;1.17;;;20.50;61.40;;;;;;4878608;28;91691;-87
2023/02/19 02:04:54;;;;;;;2.78;1.20;;;20.50;61.50;;;;;;4877944;28;88886;-87
2023/02/19 02:10:19;;;;;;;1.85;1.38;;;20.40;61.60;;;;;;4878105;28;88484;-87
2023/02/19 02:12:46;;;;;;;1.75;1.35;;;20.40;61.60;;;;;;4877976;28;87534;-87
2023/02/19 02:18:37;;;;;;;1.65;1.05;;;20.40;61.70;;;;;;4875604;28;87435;-87
2023/02/19 02:21:42;;;;;;;2.28;1.20;;;20.40;61.60;;;;;;4857850;28;87037;-87
2023/02/19 02:24:11;;;;;;;2.05;1.33;;;20.40;61.60;;;;;;4888844;28;88042;-87
2023/02/19 02:26:49;;;;;;;2.00;1.40;;;20.40;61.40;;;;;;4911732;28;88873;-87
2023/02/19 02:29:45;;;;;;;1.80;1.13;;;20.40;61.40;;;;;;4887078;28;92438;-87
2023/02/19 02:32:16;;;;;;;1.83;1.30;;;20.40;61.50;;;;;;4915562;28;87923;-87
2023/02/19 02:34:53;;;;;;;1.65;1.10;;;20.40;61.60;;;;;;4915611;28;87544;-87
2023/02/19 02:37:18;;;;;;;1.48;1.20;;;20.40;61.50;;;;;;4914823;28;89552;-87
2023/02/19 02:39:46;;;;;;;1.35;1.10;;;20.40;61.50;;;;;;4915733;28;88396;-87
2023/02/19 02:42:27;;;;;;;1.55;1.38;;;20.40;61.60;;;;;;4915657;28;87215;-87
2023/02/19 02:59:10;;;;;;;1.33;1.08;;;20.30;61.30;;;;;;4887247;28;86682;-87
2023/02/19 03:02:11;;;;;;;1.75;1.10;;;20.20;61.30;;;;;;4901074;28;88681;-87
2023/02/19 03:07:46;;;;;;;1.95;1.20;;;20.30;61.20;;;;;;4909825;28;87817;-87
2023/02/19 03:10:18;;;;;;;1.85;1.35;;;20.30;61.10;;;;;;4907625;28;86958;-87
2023/02/19 03:21:07;;;;;;;1.20;1.00;;;20.20;61.20;;;;;;4913426;28;86845;-87
2023/02/19 03:26:23;;;;;;;;;;;20.10;61.40;;;;;;4913075;28;91327;-87
2023/02/19 03:31:38;;;;;;;2.28;1.27;;;20.10;61.30;;;;;;4906515;28;87096;-87
2023/02/19 03:34:09;;;;;;;1.42;1.25;;;20.20;61.40;;;;;;4911194;28;89496;-87
2023/02/19 03:36:43;;;;;;;1.63;1.08;;;20.10;61.50;;;;;;4911466;28;88917;-87
2023/02/19 03:39:11;;;;;;;1.33;1.17;;;20.10;61.40;;;;;;4912062;28;87211;-87
2023/02/19 03:42:06;;;;;;;1.92;1.33;;;20.10;61.20;;;;;;4912705;28;87480;-86
2023/02/19 03:44:48;;;;;;;1.40;1.30;;;20.10;61.40;;;;;;4910168;28;91870;-87
2023/02/19 03:47:17;;;;;;;2.17;1.27;;;20.10;61.40;;;;;;4912955;28;88445;-87
2023/02/19 03:49:45;;;;;;;0.93;0.87;;;20.10;61.40;;;;;;4911012;28;87357;-87
2023/02/19 03:52:14;;;;;;;3.63;1.42;;;20.10;61.40;;;;;;4911316;28;87033;-87
2023/02/19 03:54:56;;;;;;;1.67;1.20;;;20.10;61.50;;;;;;4912889;28;87936;-87
2023/02/19 03:57:30;;;;;;;2.50;1.40;;;20.10;61.50;;;;;;4911692;28;88363;-87
2023/02/19 04:05:06;;;;;;;1.88;1.25;;;20.10;61.30;;;;;;4931640;28;87533;-87
2023/02/19 04:07:36;;;;;;;1.23;1.13;;;20.10;61.40;;;;;;4933581;28;87582;-87
2023/02/19 04:10:04;;;;;;;1.75;1.30;;;20.10;61.50;;;;;;4939798;28;88146;-87
2023/02/19 04:12:30;;;;;;;2.10;1.38;;;20.00;61.30;;;;;;4939850;28;87456;-87
2023/02/19 04:25:07;;;;;;;1.23;0.90;;;20.00;61.40;;;;;;4940098;28;87425;-87
2023/02/19 04:27:38;;;;;;;1.55;1.20;;;20.00;61.40;;;;;;4939239;28;87624;-87
2023/02/19 04:30:05;;;;;;;1.30;1.10;;;20.00;61.30;;;;;;4938971;28;89928;-87
2023/02/19 04:32:31;;;;;;;1.40;1.30;;;20.00;61.30;;;;;;4940024;28;89754;-87
2023/02/19 04:34:57;;;;;;;2.03;1.30;;;20.00;61.30;;;;;;4954628;28;87548;-87
2023/02/19 04:44:06;;;;;;;1.55;1.10;;;19.90;61.30;;;;;;4938546;28;87473;-87
2023/02/19 04:46:32;;;;;;;1.42;1.20;;;19.90;61.30;;;;;;4939200;28;87252;-87
2023/02/19 04:48:58;;;;;;;1.92;1.38;;;20.00;61.20;;;;;;4939660;28;86618;-87
2023/02/19 04:51:23;;;;;;;1.70;1.33;;;19.90;61.30;;;;;;4937201;28;91583;-87
2023/02/19 04:57:11;;;;;;;1.48;1.08;;;19.90;61.30;;;;;;4937276;28;87943;-87
2023/02/19 04:59:36;;;;;;;1.58;1.30;;;19.90;61.20;;;;;;4939989;28;87549;-87
2023/02/19 05:02:02;;;;;;;1.65;1.23;;;19.90;61.30;;;;;;4938550;28;88600;-87
2023/02/19 05:04:27;;;;;;;2.40;1.23;;;19.90;61.80;;;;;;4937172;28;91250;-87
2023/02/19 05:06:53;;;;;;;1.33;1.13;;;19.90;61.20;;;;;;4953010;28;87089;-87
2023/02/19 05:09:19;;;;;;;1.92;1.20;;;19.90;61.10;;;;;;4958565;28;87287;-87
2023/02/19 05:11:44;;;;;;;1.55;1.40;;;19.90;61.40;;;;;;4958916;28;88207;-87
2023/02/19 05:14:10;;;;;;;2.17;1.38;;;19.90;61.10;;;;;;4958574;28;87111;-87
2023/02/19 05:36:46;;;;;;;1.85;1.13;;;19.80;61.10;;;;;;4957424;28;86931;-87
2023/02/19 05:39:12;;;;;;;1.55;1.00;;;19.80;61.10;;;;;;4957806;28;88110;-87
2023/02/19 05:41:38;;;;;;;1.17;0.93;;;19.80;61.10;;;;;;4958806;28;87338;-87
2023/02/19 05:44:03;;;;;;;2.28;1.15;;;19.80;61.00;;;;;;4958174;28;86832;-86
2023/02/19 05:46:48;;;;;;;1.83;1.13;;;19.80;61.10;;;;;;4958378;28;88016;-87
2023/02/19 05:49:14;;;;;;;2.08;1.40;;;19.80;60.90;;;;;;4957491;28;88565;-87
2023/02/19 05:51:39;;;;;;;2.22;1.10;;;19.80;60.90;;;;;;4957727;28;88293;-87
2023/02/19 05:54:05;;;;;;;1.63;1.10;;;19.80;61.20;;;;;;4958066;28;87538;-87
2023/02/19 05:56:37;;;;;;;1.77;1.10;;;19.80;61.20;;;;;;4958699;28;88771;-87
2023/02/19 05:59:06;;;;;;;1.52;1.15;;;19.80;61.10;;;;;;4957252;28;89296;-87
2023/02/19 06:16:09;;;;;;;1.00;0.90;;;19.80;61.00;;;;;;4929098;28;87498;-87
2023/02/19 06:18:39;;;;;;;2.00;1.20;;;19.70;61.00;;;;;;4957744;28;87552;-87
2023/02/19 06:21:07;;;;;;;2.03;0.90;;;19.70;60.90;;;;;;4938073;28;91626;-87
2023/02/19 06:23:33;;;;;;;2.10;1.10;;;19.70;61.00;;;;;;4958100;28;89416;-87
2023/02/19 06:26:23;;;;;;;1.25;1.00;;;19.70;61.00;;;;;;4957599;28;87477;-86
2023/02/19 06:28:50;;;;;;;0.90;0.80;;;19.70;61.20;;;;;;4947802;28;90807;-87
2023/02/19 06:34:44;;;;;;;1.13;0.95;;;19.70;61.00;;;;;;4956414;28;87297;-87
2023/02/19 06:37:09;;;;;;;1.33;1.02;;;19.70;61.00;;;;;;4957476;28;87597;-87
2023/02/19 06:39:35;;;;;;;1.52;0.95;;;19.70;60.90;;;;;;4957519;28;87143;-87
2023/02/19 06:42:01;;;;;;;1.30;1.17;;;19.70;60.90;;;;;;4956856;28;88837;-88
2023/02/19 06:44:27;;;;;;;2.60;1.10;;;19.70;61.00;;;;;;4957799;28;88489;-87
2023/02/19 06:46:55;;;;;;;1.65;1.00;;;19.80;60.50;;;;;;4956585;28;88419;-87
2023/02/19 06:49:22;;;;;;;2.88;1.77;;;19.80;60.30;;;;;;4957066;28;88077;-86
2023/02/19 06:51:47;;;;;;;5.68;1.75;;;19.80;59.60;;;;;;4956003;28;88628;-87
2023/02/19 06:54:24;;;;;;;9.13;2.38;;;19.80;59.50;;;;;;4956155;28;88274;-88
2023/02/19 06:56:50;;;;;;;18.15;5.15;;;19.90;60.00;;;;;;4955716;28;87596;-87
2023/02/19 06:59:15;;;;;;;21.15;5.35;;;19.90;59.60;;;;;;4956768;28;87683;-88
2023/02/19 07:01:42;;;;;;;12.00;3.65;;;20.00;60.00;;;;;;4956483;28;87795;-88
2023/02/19 07:04:08;;;;;;;16.60;4.75;;;20.00;59.70;;;;;;4935443;28;91924;-89
2023/02/19 07:06:36;;;;;;;14.85;3.95;;;20.10;59.80;;;;;;4942917;28;94522;-89
2023/02/19 07:09:03;;;;;;;16.10;5.45;;;20.20;59.90;;;;;;4956079;28;87314;-86
2023/02/19 07:11:31;;;;;;;15.25;4.15;;;20.30;59.50;;;;;;4956721;28;88576;-86
2023/02/19 07:13:58;;;;;;;24.58;5.10;;;20.40;59.50;;;;;;4956916;28;89201;-86
2023/02/19 07:16:24;;;;;;;15.82;4.70;;;20.40;59.40;;;;;;4956292;28;87500;-87
2023/02/19 07:18:50;;;;;;;15.52;4.38;;;20.40;59.50;;;;;;4956807;28;87728;-85
2023/02/19 07:21:17;;;;;;;13.38;4.40;;;20.40;59.60;;;;;;4956045;28;88390;-86
2023/02/19 07:23:43;;;;;;;18.88;4.78;;;20.40;59.70;;;;;;4958677;28;88352;-85
2023/02/19 07:26:15;;;;;;;19.05;4.25;;;20.40;59.70;;;;;;4937900;28;87011;-85
2023/02/19 07:28:46;;;;;;;16.48;4.80;;;20.40;59.90;;;;;;4926691;28;90315;-86
2023/02/19 07:31:12;;;;;;;12.38;4.28;;;20.30;60.00;;;;;;4927691;28;88592;-86
2023/02/19 07:43:44;;;;;;;11.98;3.83;;;20.30;60.40;;;;;;4926107;28;86979;-87
2023/02/19 07:46:12;;;;;;;13.40;3.60;;;20.20;60.70;;;;;;4927954;28;88331;-87
2023/02/19 07:48:39;;;;;;;10.77;4.13;;;20.20;60.70;;;;;;4926760;28;87701;-87
2023/02/19 07:51:07;;;;;;;13.90;3.55;;;20.20;60.70;;;;;;4926859;28;87389;-87
2023/02/19 07:53:34;;;;;;;18.13;4.55;;;20.10;60.80;;;;;;4928500;28;88781;-87
2023/02/19 07:56:04;;;;;;;11.90;3.88;;;20.20;61.00;;;;;;4926339;28;88076;-87
2023/02/19 07:58:30;;;;;;;11.70;3.55;;;20.10;60.90;;;;;;4918538;28;87591;-86
2023/02/19 08:00:56;;;;;;;14.20;3.90;;;20.10;61.00;;;;;;4926547;28;87236;-88
2023/02/19 08:03:22;;;;;;;25.48;5.32;;;20.10;61.10;;;;;;4927178;28;89489;-85
2023/02/19 08:05:50;;;;;;;18.60;4.57;;;20.10;60.00;;;;;;4929948;28;91485;-84
2023/02/19 08:08:16;;;;;;;20.17;4.82;;;20.20;60.40;;;;;;4930305;28;87475;-86
2023/02/19 08:13:29;;;;;;;18.88;4.78;;;20.30;60.30;;;;;;4930185;28;87257;-84
2023/02/19 08:15:56;;;;;;;14.20;4.18;;;20.40;60.20;;;;;;4920793;28;91838;-85
2023/02/19 08:18:26;;;;;;;12.68;3.45;;;20.50;60.20;;;;;;4930263;28;87137;-86
2023/02/19 08:20:54;;;;;;;13.35;5.18;;;20.60;59.60;;;;;;4931090;28;87775;-85
2023/02/19 08:23:22;;;;;;;17.65;3.97;;;20.70;59.10;;;;;;4951796;28;92525;-86
2023/02/19 08:25:49;;;;;;;13.98;3.92;;;20.70;59.00;;;;;;4959038;28;88029;-85
2023/02/19 08:28:16;;;;;;;16.40;4.63;;;20.70;58.90;;;;;;4950183;28;88388;-85
2023/02/19 08:37:25;;;;;;;17.75;4.45;;;20.70;57.50;;;;;;4915402;28;87633;-86
2023/02/19 08:39:53;;;;;;;14.68;5.35;;;20.70;57.50;;;;;;4916832;28;87187;-86
2023/02/19 08:42:19;;;;;;;16.05;4.78;;;20.60;58.30;;;;;;4916965;28;89842;-86
2023/02/19 08:44:44;;;;;;;19.40;5.85;;;20.50;59.90;;;;;;4918013;28;87732;-86
2023/02/19 08:57:20;;;;;;;15.95;5.30;;;20.50;63.20;;;;;;4916800;28;89124;-86
2023/02/19 08:59:45;;;;;;;21.63;5.43;;;20.40;63.40;;;;;;4917940;28;89232;-86
2023/02/19 09:02:11;;;;;;;16.67;4.85;;;20.50;63.00;;;;;;4923094;28;87979;-87
2023/02/19 09:04:38;;;;;;;19.13;5.47;;;20.40;63.00;;;;;;4952483;28;87604;-87
2023/02/19 09:07:14;;;;;;;17.08;5.07;;;20.40;62.70;;;;;;4958003;28;88749;-87
2023/02/19 09:09:39;;;;;;;15.02;4.70;;;20.40;62.20;;;;;;4958165;28;89714;-86
2023/02/19 09:12:10;;;;;;;14.35;4.05;;;20.50;60.50;;;;;;4947101;28;88089;-87
2023/02/19 09:14:37;;;;;;;16.15;4.90;;;20.50;59.60;;;;;;4957674;28;87026;-88
2023/02/19 09:17:04;;;;;;;13.13;4.15;;;20.50;60.80;;;;;;4957112;28;88363;-87
2023/02/19 09:19:31;;;;;;;14.27;4.72;;;20.50;60.70;;;;;;4946951;28;89739;-88
2023/02/19 09:21:57;;;;;;;17.42;4.35;;;20.60;60.50;;;;;;4939298;28;88546;-87
2023/02/19 09:24:23;;;;;;;14.65;5.10;;;20.50;59.30;;;;;;4958107;28;87276;-87
2023/02/19 09:26:53;;;;;;;11.68;4.10;;;20.50;59.10;;;;;;4949370;28;90550;-88
2023/02/19 09:29:26;;;;;;;14.05;4.20;;;20.50;58.20;;;;;;4958606;28;91904;-86
2023/02/19 09:31:59;;;;;;;14.05;4.00;;;20.50;58.00;;;;;;4959152;28;87114;-86
2023/02/19 09:34:28;;;;;;;11.95;3.63;;;20.50;58.50;;;;;;4958202;28;87652;-85
2023/02/19 09:36:56;;;;;;;14.40;4.40;;;20.50;58.90;;;;;;4958041;28;88787;-85
2023/02/19 09:39:22;;;;;;;13.65;4.07;;;20.50;59.20;;;;;;4955688;28;89013;-85
2023/02/19 09:42:23;;;;;;;9.02;3.60;;;20.60;59.30;;;;;;4954075;28;88290;-86
2023/02/19 09:44:53;;;;;;;11.52;3.83;;;20.50;59.50;;;;;;4875639;28;92140;-85
2023/02/19 09:47:25;;;;;;;9.60;3.70;;;20.50;59.80;;;;;;4873938;28;91148;-86
2023/02/19 09:50:06;;;;;;;9.88;3.15;;;20.60;60.00;;;;;;4866684;28;92510;-85
2023/02/19 09:52:34;;;;;;;11.55;3.20;;;20.60;59.60;;;;;;4875925;28;87422;-85
2023/02/19 09:55:36;;;;;;;11.68;3.35;;;20.70;59.40;;;;;;4862296;28;90549;-84
2023/02/19 09:58:23;;;;;;;14.20;4.07;;;20.80;59.30;;;;;;4877134;28;88579;-84
2023/02/19 10:00:50;;;;;;;9.23;2.92;;;21.00;59.40;;;;;;4880180;28;90753;-86
2023/02/19 10:03:40;;;;;;;8.55;3.50;;;21.10;58.90;;;;;;4869246;28;87019;-86
2023/02/19 10:06:07;;;;;;;;;;;21.10;58.70;;;;;;4877797;28;87628;-88
2023/02/19 10:08:34;;;;;;;13.10;4.18;;;21.20;58.30;;;;;;4879809;28;90185;-85
2023/02/19 10:11:02;;;;;;;9.68;3.38;;;21.20;58.20;;;;;;4878232;28;88371;-87
2023/02/19 10:13:31;;;;;;;11.57;3.72;;;21.20;58.20;;;;;;4861582;28;88686;-86
2023/02/19 10:15:59;;;;;;;;;;;21.20;58.40;;;;;;4862915;28;90878;-86
2023/02/19 10:18:32;;;;;;;13.63;3.17;;;21.20;58.10;;;;;;4859432;29;90073;-85
2023/02/19 10:20:59;;;;;;;8.93;3.38;;;21.20;58.30;;;;;;4865404;28;87607;-87
2023/02/19 10:23:25;;;;;;;11.75;3.17;;;21.20;57.40;;;;;;4889242;28;87277;-86
2023/02/19 10:25:59;;;;;;;11.18;3.45;;;21.00;56.30;;;;;;4898417;28;90198;-87
2023/02/19 10:28:32;;;;;;;9.50;3.22;;;21.00;57.70;;;;;;4879854;28;91841;-87
2023/02/19 10:34:21;;;;;;;11.98;3.60;;;20.90;59.90;;;;;;4905481;28;87460;-88
2023/02/19 10:36:51;;;;;;;9.30;2.75;;;20.90;60.50;;;;;;4916580;28;87631;-89
2023/02/19 10:39:22;;;;;;;;;;;20.90;61.20;;;;;;4916323;28;89558;-88
2023/02/19 10:41:49;;;;;;;12.50;3.83;;;20.80;60.10;;;;;;4893450;28;91457;-88
2023/02/19 10:47:45;;;;;;;8.55;3.03;;;20.80;58.60;;;;;;4916437;28;90266;-87
2023/02/19 10:50:38;;;;;;;10.18;3.20;;;20.80;56.80;;;;;;4918828;28;91817;-84
2023/02/19 10:53:04;;;;;;;10.02;2.95;;;20.80;56.00;;;;;;4875345;28;88295;-87
2023/02/19 10:55:34;;;;;;;8.68;2.70;;;20.90;56.50;;;;;;4877479;28;86960;-89
2023/02/19 10:58:27;;;;;;;8.38;2.78;;;20.90;56.80;;;;;;4877537;28;87429;-89
2023/02/19 11:01:28;;;;;;;9.77;3.08;;;21.00;57.00;;;;;;4876098;28;92413;-88
2023/02/19 11:04:16;;;;;;;43.38;9.20;;;20.90;57.40;;;;;;4803239;29;87862;-87
2023/02/19 11:06:42;;;;;;;34.47;8.05;;;21.00;57.60;;;;;;4765156;29;88658;-88
2023/02/19 11:09:30;;;;;;;74.72;20.48;;;20.90;57.40;;;;;;4766376;29;87395;-88
2023/02/19 11:15:32;;;;;;;138.52;33.75;;;21.00;57.50;;;;;;4765611;29;87343;-89
2023/02/19 11:18:06;;;;;;;144.40;35.05;;;21.00;57.90;;;;;;4750595;29;87337;-88
2023/02/19 11:20:32;;;;;;;142.02;35.88;;;21.10;58.00;;;;;;4766361;29;87385;-88
2023/02/19 11:23:13;;;;;;;153.05;38.72;;;21.10;58.30;;;;;;4757253;29;90447;-88
2023/02/19 11:25:51;;;;;;;119.80;32.42;;;21.10;58.80;;;;;;4765157;29;89078;-89
2023/02/19 11:28:29;;;;;;;157.27;37.85;;;21.10;58.10;;;;;;4750130;29;87019;-87
2023/02/19 11:31:11;;;;;;;159.30;39.33;;;21.10;58.40;;;;;;4799872;29;87653;-90
2023/02/19 11:33:43;;;;;;;157.18;40.03;;;21.20;58.50;;;;;;4800892;29;91308;-89
2023/02/19 11:36:15;;;;;;;156.98;40.60;;;21.20;58.60;;;;;;4801678;29;92248;-89
2023/02/19 11:38:41;;;;;;;153.88;40.38;;;21.20;58.50;;;;;;4883308;28;87153;-87
2023/02/19 11:48:12;;;;;;;126.72;34.80;;;21.20;58.80;;;;;;4916947;28;91467;-89
2023/02/19 11:50:56;;;;;;;110.55;32.50;;;21.10;58.60;;;;;;4919177;28;87070;-90
2023/02/19 11:53:31;;;;;;;111.90;33.85;;;21.10;58.30;;;;;;4892698;28;94645;-88
2023/02/19 12:13:11;;;;;;;109.63;30.88;;;21.20;59.20;;;;;;4936079;28;87287;-88
2023/02/19 12:16:14;;;;;;;99.00;31.05;;;21.20;59.10;;;;;;4932474;28;87415;-87
2023/02/19 12:18:59;;;;;;;94.60;29.20;;;21.20;59.10;;;;;;4936563;28;87848;-89
2023/02/19 12:21:43;;;;;;;90.03;26.20;;;21.20;59.00;;;;;;4930126;28;88693;-87
2023/02/19 12:24:31;;;;;;;98.13;30.33;;;21.20;59.20;;;;;;4938268;28;89369;-88
2023/02/19 12:27:03;;;;;;;71.87;24.67;;;21.30;60.50;;;;;;4851086;28;87388;-88
2023/02/19 12:30:05;;;;;;;74.95;24.15;;;21.30;59.50;;;;;;4872013;28;87781;-87
2023/02/19 12:32:39;;;;;;;87.60;25.25;;;21.40;59.20;;;;;;4869561;28;93883;-93
2023/02/19 12:35:28;;;;;;;70.40;23.52;;;21.40;59.10;;;;;;4872510;28;89203;-94
2023/02/19 12:41:18;;;;;;;83.40;25.45;;;21.30;59.30;;;;;;4870611;28;87929;-95
2023/02/19 12:43:54;;;;;;;71.97;21.77;;;21.40;59.20;;;;;;4859369;28;91892;-94
2023/02/19 12:46:29;;;;;;;62.80;21.42;;;21.40;59.20;;;;;;4870146;28;88032;-96
2023/02/19 12:49:05;;;;;;;69.03;22.33;;;21.50;59.20;;;;;;4861941;28;87348;-95
2023/02/19 12:55:29;;;;;;;73.28;21.45;;;21.50;59.00;;;;;;4869872;28;87490;-95
2023/02/19 12:57:57;;;;;;;61.53;20.80;;;21.60;59.20;;;;;;4852934;28;89914;-96
2023/02/19 13:00:40;;;;;;;58.85;19.90;;;21.60;58.90;;;;;;4857360;28;88630;-94
2023/02/19 13:03:29;;;;;;;64.50;21.23;;;21.60;59.10;;;;;;4866955;28;87713;-95
2023/02/19 13:09:38;;;;;;;60.72;19.75;;;21.60;59.30;;;;;;4936698;28;87831;-96
2023/02/19 13:12:10;;;;;;;59.33;19.17;;;21.60;59.20;;;;;;4941186;28;87334;-94
2023/02/19 13:14:38;;;;;;;64.93;20.02;;;21.60;59.00;;;;;;4929184;28;90990;-94
2023/02/19 13:17:30;;;;;;;60.63;20.23;;;21.60;59.10;;;;;;4944571;28;91399;-94
2023/02/19 13:27:19;;;;;;;54.47;17.92;;;21.60;59.20;;;;;;4895996;28;90335;-95
2023/02/19 13:29:59;;;;;;;48.50;18.48;;;21.60;59.10;;;;;;4894450;28;94018;-95
2023/02/19 13:32:24;;;;;;;63.00;20.40;;;21.70;59.10;;;;;;4893280;28;96695;-93
2023/02/19 13:35:19;;;;;;;59.60;18.63;;;21.70;59.10;;;;;;4896117;28;87677;-94
2023/02/19 13:58:49;;;;;;;46.30;16.83;;;22.10;58.30;;;;;;4931020;28;87370;-94
2023/02/19 14:01:15;;;;;;;47.85;16.50;;;22.10;58.20;;;;;;4877663;28;88210;-94
2023/02/19 14:04:33;;;;;;;52.63;18.45;;;22.10;58.20;;;;;;4858221;29;88730;-96
2023/02/19 14:07:04;;;;;;;42.35;16.83;;;22.20;58.40;;;;;;4802644;29;90894;-96
2023/02/19 14:09:36;;;;;;;42.83;16.55;;;22.20;58.40;;;;;;4803768;29;88567;-96
2023/02/19 14:12:23;;;;;;;48.15;17.45;;;22.20;58.30;;;;;;4803113;29;87562;-93
2023/02/19 14:14:53;;;;;;;41.33;15.77;;;22.20;58.20;;;;;;4803166;29;89855;-94
2023/02/19 14:21:26;;;;;;;40.22;15.65;;;22.20;58.40;;;;;;4803138;29;91509;-96
2023/02/19 14:23:57;;;;;;;41.65;16.25;;;22.20;58.50;;;;;;4803608;29;87423;-95
2023/02/19 14:26:24;;;;;;;43.20;15.10;;;22.20;58.70;;;;;;4803728;29;91431;-94
2023/02/19 14:28:55;;;;;;;45.47;17.33;;;22.20;58.70;;;;;;4803736;29;89695;-95
2023/02/19 14:31:31;;;;;;;40.90;15.13;;;22.30;58.70;;;;;;4803171;29;92792;-94
2023/02/19 14:34:05;;;;;;;39.95;14.48;;;22.30;58.60;;;;;;4802216;29;87715;-96
2023/02/19 14:36:46;;;;;;;37.53;14.23;;;22.30;58.70;;;;;;4819525;29;87616;-96
2023/02/19 14:39:26;;;;;;;35.50;14.50;;;22.30;58.60;;;;;;4811546;29;90434;-95
2023/02/19 14:48:44;;;;;;;39.03;13.45;;;22.40;58.70;;;;;;4918973;28;87481;-96
2023/02/19 14:51:22;;;;;;;37.67;13.55;;;22.60;58.10;;;;;;4934768;28;90621;-93
2023/02/19 14:53:58;;;;;;;;;;;;;;;;;;;;;
2023/02/19 14:56:29;;;;;;;33.53;13.13;;;22.50;58.50;;;;;;4936801;28;89866;-96
2023/02/19 14:59:10;;;;;;;32.63;13.00;;;22.60;58.60;;;;;;4932523;28;89234;-94
2023/02/19 15:01:36;;;;;;;36.75;13.45;;;22.60;58.80;;;;;;4923540;28;90938;-95
2023/02/19 15:04:02;;;;;;;30.88;12.20;;;22.70;59.00;;;;;;4932876;28;90551;-96
2023/02/19 15:06:30;;;;;;;36.78;13.93;;;22.60;59.00;;;;;;4936997;28;87421;-95
2023/02/19 15:09:04;;;;;;;31.85;13.02;;;22.60;59.00;;;;;;4908517;28;89437;-95
2023/02/19 15:11:31;;;;;;;35.83;12.10;;;22.60;59.10;;;;;;4935415;28;91114;-94
2023/02/19 15:14:18;;;;;;;29.75;12.20;;;22.70;59.20;;;;;;4943730;28;88783;-94
2023/02/19 15:16:45;;;;;;;35.60;12.52;;;22.70;59.30;;;;;;4934152;28;87295;-96
2023/02/19 15:19:14;;;;;;;55.35;13.38;;;22.70;59.80;;;;;;4936824;28;90629;-95
2023/02/19 15:22:00;;;;;;;;;;;22.70;59.80;;;;;;4921568;28;92425;-95
2023/02/19 15:24:27;;;;;;;30.85;10.90;;;22.80;60.00;;;;;;4918973;28;91184;-96
2023/02/19 15:26:53;;;;;;;26.65;10.90;;;22.80;60.20;;;;;;4902987;28;87583;-96
2023/02/19 15:29:41;;;;;;;26.75;10.55;;;22.80;60.30;;;;;;4902580;28;94159;-96
2023/02/19 15:32:16;;;;;;;28.30;11.77;;;22.80;60.70;;;;;;4865508;28;91095;-95
2023/02/19 15:34:51;;;;;;;33.38;12.10;;;22.80;60.40;;;;;;4855110;28;91266;-96
2023/02/19 15:37:17;;;;;;;33.00;11.50;;;22.80;60.40;;;;;;4857446;28;87122;-95
2023/02/19 15:40:15;;;;;;;35.40;12.35;;;22.90;60.70;;;;;;4860047;28;89884;-95
2023/02/19 15:42:44;;;;;;;30.25;11.63;;;22.80;61.00;;;;;;4883480;28;91473;-91
2023/02/19 15:45:26;;;;;;;27.25;11.43;;;22.90;61.30;;;;;;4868913;28;87576;-94
2023/02/19 15:47:54;;;;;;;26.75;10.07;;;23.00;59.60;;;;;;4878215;28;88306;-93
2023/02/19 15:50:42;;;;;;;29.48;11.13;;;23.00;60.00;;;;;;4864264;28;93752;-94
2023/02/19 15:53:28;;;;;;;28.50;10.27;;;23.10;60.10;;;;;;4878614;28;90717;-94
2023/02/19 15:56:06;;;;;;;30.40;11.23;;;23.00;60.20;;;;;;4891858;28;91412;-96
2023/02/19 15:58:52;;;;;;;26.52;9.93;;;23.00;60.40;;;;;;4881921;28;87412;-93
2023/02/19 16:02:06;;;;;;;25.20;9.45;;;23.00;60.70;;;;;;4883149;28;90165;-93
2023/02/19 16:04:34;;;;;;;27.77;11.18;;;23.10;60.80;;;;;;4882399;28;91570;-92
2023/02/19 16:07:01;;;;;;;21.85;9.73;;;23.10;60.90;;;;;;4882367;28;89650;-94
2023/02/19 16:09:34;;;;;;;25.33;10.10;;;23.10;61.30;;;;;;4920231;28;87315;-93
2023/02/19 16:12:02;;;;;;;27.20;10.98;;;23.10;61.50;;;;;;4919635;28;89687;-94
2023/02/19 16:14:54;;;;;;;21.17;9.55;;;23.10;61.20;;;;;;4934665;28;90928;-93
2023/02/19 16:17:21;;;;;;;23.88;9.63;;;23.10;61.60;;;;;;4878890;28;93551;-93
2023/02/19 16:19:58;;;;;;;22.98;9.52;;;23.10;61.60;;;;;;4879588;28;87099;-94
2023/02/19 16:22:27;;;;;;;23.00;9.45;;;23.00;61.20;;;;;;4879572;28;90498;-95
2023/02/19 16:24:59;;;;;;;23.63;9.07;;;23.00;61.50;;;;;;4877793;28;91363;-92
2023/02/19 16:27:45;;;;;;;23.77;9.77;;;23.00;61.70;;;;;;4879775;28;89024;-93
2023/02/19 16:30:16;;;;;;;25.67;10.02;;;23.00;62.90;;;;;;4878719;28;87779;-94
2023/02/19 16:32:45;;;;;;;23.50;9.10;;;23.00;61.80;;;;;;4863983;28;90535;-95
2023/02/19 16:35:38;;;;;;;21.10;9.15;;;23.00;61.60;;;;;;4877622;28;90555;-94
2023/02/19 16:38:15;;;;;;;24.77;9.55;;;23.00;61.60;;;;;;4882460;28;89841;-93
2023/02/19 16:40:54;;;;;;;19.45;8.45;;;23.00;61.80;;;;;;4881439;28;88269;-95
2023/02/19 16:43:44;;;;;;;20.23;7.72;;;23.10;61.90;;;;;;4867202;28;89052;-95
2023/02/19 16:46:11;;;;;;;18.17;7.78;;;23.10;61.80;;;;;;4879588;28;88531;-94
2023/02/19 16:48:37;;;;;;;17.52;8.60;;;23.10;61.10;;;;;;4878245;28;88220;-93
2023/02/19 16:51:05;;;;;;;18.73;8.95;;;23.20;60.70;;;;;;4878669;28;87263;-92
2023/02/19 16:53:32;;;;;;;23.67;10.73;;;23.20;60.50;;;;;;4887431;28;89569;-92
2023/02/19 16:55:58;;;;;;;20.63;11.00;;;23.20;60.30;;;;;;4914081;28;91569;-92
2023/02/19 16:58:24;;;;;;;19.08;9.60;;;23.20;60.50;;;;;;4898685;28;88110;-95
2023/02/19 17:01:00;;;;;;;25.48;10.82;;;23.20;60.40;;;;;;4900953;28;87410;-93